Time;durP1;ratioP1;P1;durP2;ratioP2;P2;SDS_P1;SDS_P2;PMS_P1;PMS_P2;Temp;Humidity;BMP_temperature;BMP_pressure;BME280_temperature;BME280_humidity;BME280_pressure;Samples;Min_cycle;Max_cycle;Signal;HPM_P1;HPM_P2
2022/04/22 00:01:51;;;;;;;6.93;5.95;;;7.50;93.20;;;6.35;70.70;96174.19;4951834;28;20475;-74
2022/04/22 00:04:17;;;;;;;8.10;6.20;;;7.50;93.30;;;6.33;70.89;96174.44;4952411;29;20406;-73
2022/04/22 00:06:43;;;;;;;7.70;6.22;;;7.50;93.40;;;6.33;70.44;96173.66;4952383;29;20418;-73
2022/04/22 00:09:09;;;;;;;6.88;5.65;;;7.50;93.30;;;6.24;71.49;96170.69;4952143;29;20425;-73
2022/04/22 00:11:36;;;;;;;9.00;6.47;;;7.40;93.60;;;6.29;70.88;96172.59;4951906;29;20451;-74
2022/04/22 00:14:03;;;;;;;7.85;6.03;;;7.40;93.60;;;6.18;71.41;96176.97;4952313;29;20414;-74
2022/04/22 00:16:31;;;;;;;8.10;5.95;;;7.30;93.80;;;6.11;71.48;96171.13;4952213;29;20410;-73
2022/04/22 00:18:57;;;;;;;9.60;6.15;;;7.30;93.90;;;6.08;71.67;96171.66;4952162;28;20447;-74
2022/04/22 00:21:24;;;;;;;7.85;6.28;;;7.30;94.20;;;6.07;71.82;96170.88;4951805;29;20414;-74
2022/04/22 00:23:50;;;;;;;8.57;6.20;;;7.20;94.20;;;6.09;71.41;96149.59;4952176;28;20534;-73
2022/04/22 00:26:16;;;;;;;8.95;6.03;;;7.20;94.00;;;6.05;71.85;96161.66;4951965;28;20407;-73
2022/04/22 00:28:44;;;;;;;8.57;6.63;;;7.20;94.20;;;6.03;71.71;96164.50;4951933;29;20445;-73
2022/04/22 00:31:10;;;;;;;7.25;6.18;;;7.20;94.20;;;5.98;71.73;96151.34;4951841;28;20414;-74
2022/04/22 00:33:36;;;;;;;9.45;6.43;;;7.10;94.30;;;5.95;71.52;96151.84;4951807;29;20425;-74
2022/04/22 00:36:02;;;;;;;8.10;6.50;;;7.10;94.20;;;5.96;72.58;96150.00;4952021;29;20406;-74
2022/04/22 00:38:29;;;;;;;8.47;6.63;;;7.00;94.50;;;5.90;72.42;96161.53;4951839;29;20464;-73
2022/04/22 00:40:56;;;;;;;8.32;6.68;;;7.00;94.70;;;5.84;72.76;96158.84;4951493;28;20969;-73
2022/04/22 00:43:24;;;;;;;9.55;7.30;;;7.00;94.90;;;5.89;71.89;96152.84;4951812;28;20434;-73
2022/04/22 00:45:53;;;;;;;8.85;6.78;;;7.00;94.70;;;5.79;72.25;96150.09;4948813;28;20413;-74
2022/04/22 00:48:21;;;;;;;8.05;6.70;;;7.00;94.90;;;5.81;72.06;96148.03;4951507;29;20484;-74
2022/04/22 00:50:48;;;;;;;9.57;7.20;;;6.90;94.80;;;5.72;72.47;96152.16;4951361;28;20406;-74
2022/04/22 00:53:14;;;;;;;9.75;7.10;;;6.80;95.00;;;5.69;72.62;96147.41;4951561;29;20483;-74
2022/04/22 00:55:43;;;;;;;9.95;7.22;;;6.80;95.20;;;5.62;73.25;96145.00;4950427;28;20951;-75
2022/04/22 00:58:10;;;;;;;10.48;7.80;;;6.80;95.40;;;5.63;73.87;96140.56;4951513;29;20744;-75
2022/04/22 01:00:36;;;;;;;9.07;7.45;;;6.80;95.70;;;5.61;73.43;96140.78;4951047;29;20410;-75
2022/04/22 01:03:05;;;;;;;8.43;7.30;;;6.70;95.60;;;5.55;73.70;96133.13;4951513;29;20413;-74
2022/04/22 01:11:03;;;;;;;9.95;7.40;;;6.70;96.00;;;5.54;73.74;96128.91;4950957;29;20433;-74
2022/04/22 01:13:30;;;;;;;8.90;7.53;;;6.60;95.90;;;5.48;74.22;96128.09;4951237;29;20428;-74
2022/04/22 01:15:56;;;;;;;10.27;7.93;;;6.60;96.10;;;5.48;73.86;96127.28;4951344;29;20477;-74
2022/04/22 01:18:23;;;;;;;10.88;8.02;;;6.60;96.10;;;5.39;74.25;96119.88;4951353;28;20437;-74
2022/04/22 01:20:49;;;;;;;9.25;7.78;;;6.50;96.20;;;5.39;74.28;96121.69;4950900;29;20464;-74
2022/04/22 01:23:16;;;;;;;11.10;8.03;;;6.50;96.30;;;5.30;74.62;96116.09;4951149;29;20433;-75
2022/04/22 01:25:43;;;;;;;10.55;7.97;;;6.50;96.60;;;5.35;74.61;96112.72;4951396;28;20772;-75
2022/04/22 01:28:10;;;;;;;9.25;7.97;;;6.50;96.70;;;5.27;74.73;96111.34;4951314;28;20432;-74
2022/04/22 01:30:36;;;;;;;10.73;8.13;;;6.40;96.70;;;5.31;74.96;96106.41;4950790;28;20416;-74
2022/04/22 01:33:04;;;;;;;10.20;8.45;;;6.40;96.80;;;5.22;74.96;96100.03;4946116;29;21665;-74
2022/04/22 01:35:30;;;;;;;11.23;8.60;;;6.40;96.90;;;5.20;75.27;96094.22;4950870;28;20910;-75
2022/04/22 01:37:55;;;;;;;13.45;8.80;;;6.40;97.10;;;5.22;74.80;96100.81;4951018;28;20493;-75
2022/04/22 01:40:23;;;;;;;10.40;8.17;;;6.30;97.00;;;5.08;75.35;96094.38;4950549;29;20903;-74
2022/04/22 01:42:49;;;;;;;11.15;8.75;;;6.30;97.20;;;5.10;75.50;96094.16;4950599;29;20536;-75
2022/04/22 01:45:15;;;;;;;10.57;8.20;;;6.30;97.50;;;5.04;75.94;96088.84;4950872;28;20422;-74
2022/04/22 01:47:41;;;;;;;12.47;9.20;;;6.20;97.60;;;5.03;76.03;96089.09;4950922;29;20438;-75
2022/04/22 01:50:08;;;;;;;12.90;8.80;;;6.20;97.70;;;4.98;76.11;96086.41;4950615;29;20447;-75
2022/04/22 01:52:39;;;;;;;10.73;8.45;;;6.20;97.90;;;4.98;76.39;96078.53;4950660;28;20807;-75
2022/04/22 01:55:05;;;;;;;11.25;8.43;;;6.20;97.90;;;4.98;76.23;96076.72;4950762;28;20414;-74
2022/04/22 01:57:33;;;;;;;11.15;9.35;;;6.10;97.90;;;4.96;75.72;96076.16;4950606;28;20465;-74
2022/04/22 02:00:01;;;;;;;11.60;9.13;;;6.10;97.80;;;4.90;76.23;96069.28;4949877;28;20487;-74
2022/04/22 02:02:27;;;;;;;13.48;9.20;;;6.10;98.00;;;4.91;76.44;96068.25;4954853;28;20807;-74
2022/04/22 02:04:53;;;;;;;12.95;9.63;;;6.10;98.20;;;4.85;76.69;96066.63;4955218;28;20496;-74
2022/04/22 02:07:19;;;;;;;11.52;9.60;;;6.00;98.20;;;4.85;76.39;96069.25;4958358;28;20501;-74
2022/04/22 02:09:45;;;;;;;11.45;8.88;;;6.00;98.20;;;4.78;77.25;96066.03;4973209;28;20422;-74
2022/04/22 02:12:11;;;;;;;12.95;10.05;;;6.00;98.50;;;4.79;76.72;96066.81;4963356;28;20881;-74
2022/04/22 02:14:38;;;;;;;12.57;10.20;;;6.00;98.50;;;4.77;76.78;96067.06;4969531;28;20408;-73
2022/04/22 02:17:05;;;;;;;12.77;9.57;;;5.90;98.60;;;4.77;77.02;96066.28;4957986;28;20426;-73
2022/04/22 02:19:31;;;;;;;13.17;10.27;;;5.90;98.90;;;4.71;77.24;96062.03;4954047;28;20496;-73
2022/04/22 02:21:57;;;;;;;12.32;9.63;;;5.90;98.90;;;4.62;77.68;96059.81;4972413;28;20406;-73
2022/04/22 02:24:23;;;;;;;12.68;9.68;;;5.80;99.10;;;4.63;77.71;96065.88;4990693;28;21095;-73
2022/04/22 02:29:34;;;;;;;13.47;9.90;;;5.80;99.20;;;4.56;77.74;96052.16;4945020;29;20854;-73
2022/04/22 02:32:01;;;;;;;15.05;11.35;;;5.70;99.20;;;4.58;77.88;96040.41;4982384;28;20795;-72
2022/04/22 02:34:27;;;;;;;14.07;10.85;;;5.80;99.30;;;4.51;77.81;96050.25;4950060;29;20411;-74
2022/04/22 02:36:53;;;;;;;13.85;11.40;;;5.70;99.40;;;4.54;77.66;96041.13;4950160;29;20918;-75
2022/04/22 02:39:19;;;;;;;14.27;11.02;;;5.70;99.40;;;4.42;78.07;96043.88;4964767;28;20410;-73
2022/04/22 02:47:16;;;;;;;14.48;10.85;;;5.60;99.70;;;4.40;78.28;96042.53;4942453;29;20489;-73
2022/04/22 02:49:44;;;;;;;16.77;12.02;;;5.60;99.70;;;4.36;78.70;96031.75;4949838;29;20556;-74
2022/04/22 02:52:10;;;;;;;15.88;11.88;;;5.60;99.90;;;4.40;78.06;96032.84;4949632;29;20441;-74
2022/04/22 02:54:36;;;;;;;17.80;12.27;;;5.60;99.80;;;4.29;78.28;96029.31;4949849;28;20463;-74
2022/04/22 02:57:03;;;;;;;15.13;12.10;;;5.50;99.90;;;4.25;78.67;96030.84;4948644;29;20417;-74
2022/04/22 02:59:30;;;;;;;16.75;12.70;;;5.40;99.90;;;4.22;78.64;96022.69;4949743;29;20402;-75
2022/04/22 03:01:56;;;;;;;19.50;13.23;;;5.40;99.90;;;4.23;79.17;96029.50;4949466;29;20568;-74
2022/04/22 03:04:25;;;;;;;18.45;13.00;;;5.40;99.90;;;4.19;78.90;96028.41;4948491;28;20418;-74
2022/04/22 03:06:52;;;;;;;17.35;13.32;;;5.40;99.90;;;4.18;79.35;96021.59;4949785;29;20449;-74
2022/04/22 03:09:18;;;;;;;17.95;13.50;;;5.40;99.90;;;4.15;79.31;96025.47;4946227;29;20425;-74
2022/04/22 03:11:44;;;;;;;16.88;13.35;;;5.30;99.90;;;4.14;79.14;96023.91;4949274;29;20471;-74
2022/04/22 03:14:10;;;;;;;17.50;13.85;;;5.30;99.90;;;4.11;79.04;96020.97;4946115;29;20406;-74
2022/04/22 03:16:36;;;;;;;15.87;13.07;;;5.30;99.90;;;4.06;79.34;96015.69;4964445;28;20458;-75
2022/04/22 03:19:02;;;;;;;21.00;14.88;;;5.30;99.90;;;4.12;79.13;96023.38;4982458;28;20428;-74
2022/04/22 03:21:29;;;;;;;20.65;14.65;;;5.30;99.90;;;4.03;79.41;96016.97;4949191;28;20410;-75
2022/04/22 03:23:57;;;;;;;20.60;15.23;;;5.20;99.90;;;4.04;79.36;96018.56;4949527;29;20445;-74
2022/04/22 03:26:24;;;;;;;22.23;16.30;;;5.20;99.90;;;4.03;79.65;96010.94;4949630;28;20414;-75
2022/04/22 03:28:50;;;;;;;19.75;15.70;;;5.20;99.90;;;4.01;79.56;96008.56;4949149;28;20421;-73
2022/04/22 03:31:16;;;;;;;22.95;16.90;;;5.20;99.90;;;4.02;79.57;96012.75;4949097;29;20421;-74
2022/04/22 03:33:42;;;;;;;23.80;18.02;;;5.20;99.90;;;3.99;79.99;96008.00;4949512;29;20410;-73
2022/04/22 03:36:08;;;;;;;23.38;16.85;;;5.10;99.90;;;3.96;80.04;96012.94;4949541;29;20474;-74
2022/04/22 03:38:35;;;;;;;24.50;18.03;;;5.10;99.90;;;3.97;80.25;96014.53;4949245;29;20410;-74
2022/04/22 03:41:02;;;;;;;21.58;15.80;;;5.10;99.90;;;3.86;80.66;96016.22;4949072;28;20483;-74
2022/04/22 03:43:28;;;;;;;25.02;17.63;;;5.10;99.90;;;3.90;80.57;96019.94;4963888;28;20555;-75
2022/04/22 03:45:54;;;;;;;22.25;16.75;;;5.10;99.90;;;3.87;80.63;96012.56;4949358;29;20414;-74
2022/04/22 03:48:20;;;;;;;23.92;17.40;;;5.10;99.90;;;3.87;80.56;96009.94;4949201;29;21158;-74
2022/04/22 03:50:46;;;;;;;21.35;16.60;;;5.10;99.90;;;3.81;80.86;96016.16;4948806;28;20421;-74
2022/04/22 03:53:12;;;;;;;26.50;17.92;;;5.00;99.90;;;3.86;80.71;96009.16;4941139;29;20410;-74
2022/04/22 03:55:41;;;;;;;25.70;18.20;;;5.00;99.90;;;3.83;80.46;96001.78;4949189;28;20413;-74
2022/04/22 03:58:10;;;;;;;25.25;17.60;;;5.00;99.90;;;3.77;80.80;96004.56;4942336;28;20442;-74
2022/04/22 04:00:40;;;;;;;26.38;19.40;;;5.00;99.90;;;3.80;80.54;96002.28;4948581;28;20420;-74
2022/04/22 04:03:07;;;;;;;26.33;19.05;;;5.00;99.90;;;3.73;80.74;96011.31;4948842;28;20414;-74
2022/04/22 04:05:33;;;;;;;27.07;19.93;;;4.90;99.90;;;3.72;81.23;96004.50;4948937;28;20883;-74
2022/04/22 04:07:59;;;;;;;26.83;19.73;;;4.90;99.90;;;3.72;81.21;96007.91;4948902;29;20418;-74
2022/04/22 04:15:58;;;;;;;29.88;21.73;;;4.90;99.90;;;3.71;81.12;96000.31;4948964;29;20488;-75
2022/04/22 04:18:24;;;;;;;23.40;18.65;;;4.90;99.90;;;3.65;81.31;96007.31;4948711;29;20414;-74
2022/04/22 04:23:35;;;;;;;32.65;21.77;;;4.80;99.90;;;3.65;81.92;95999.44;4948762;29;20432;-74
2022/04/22 04:26:01;;;;;;;28.83;20.50;;;4.90;99.90;;;3.65;81.37;95998.66;4947441;29;20414;-74
2022/04/22 04:28:28;;;;;;;28.10;20.73;;;4.90;99.90;;;3.57;81.81;96012.94;4948673;29;20469;-74
2022/04/22 04:30:55;;;;;;;33.13;21.83;;;4.80;99.90;;;3.60;81.88;96007.25;4950450;28;20567;-74
2022/04/22 04:33:21;;;;;;;31.63;22.15;;;4.80;99.90;;;3.65;81.51;96014.34;4951960;29;20410;-74
2022/04/22 04:35:47;;;;;;;29.17;21.73;;;4.80;99.90;;;3.60;81.75;96014.28;4952017;28;20402;-74
2022/04/22 04:38:13;;;;;;;33.45;23.60;;;4.80;99.90;;;3.66;81.82;96014.13;4951958;29;20921;-75
2022/04/22 04:40:39;;;;;;;28.53;22.30;;;4.80;99.90;;;3.62;82.02;96013.00;4951487;29;20507;-74
2022/04/22 04:43:06;;;;;;;34.92;23.48;;;4.80;99.90;;;3.64;82.23;96010.16;4962672;22;20396;-73
2022/04/22 04:45:33;;;;;;;29.75;22.83;;;4.80;99.90;;;3.67;81.66;96009.69;4973103;28;20413;-73
2022/04/22 04:47:59;;;;;;;30.70;22.13;;;4.80;99.90;;;3.64;82.11;96012.75;5004209;28;20407;-73
2022/04/22 04:50:25;;;;;;;32.77;23.73;;;4.80;99.90;;;3.67;82.29;96009.69;5000395;28;20399;-74
2022/04/22 04:52:51;;;;;;;29.60;22.67;;;4.80;99.90;;;3.64;82.43;96008.31;5000210;28;20411;-74
2022/04/22 04:55:17;;;;;;;35.08;25.33;;;4.90;99.90;;;3.72;82.39;96007.13;4995416;28;20399;-74
2022/04/22 04:57:44;;;;;;;32.22;23.13;;;4.90;99.90;;;3.72;82.86;96010.53;5014639;28;20776;-74
2022/04/22 05:00:11;;;;;;;31.00;23.45;;;4.90;99.90;;;3.75;83.38;96020.53;4989781;28;20399;-74
2022/04/22 05:02:39;;;;;;;32.53;23.43;;;4.90;99.90;;;3.79;83.36;96018.22;5032811;28;20406;-73
2022/04/22 05:05:09;;;;;;;34.35;24.35;;;5.00;99.90;;;3.85;83.37;96018.03;5032735;28;20506;-73
2022/04/22 05:07:46;;;;;;;32.47;23.83;;;5.00;99.90;;;3.92;83.44;96017.06;5048034;28;20411;-73
2022/04/22 05:10:12;;;;;;;32.60;24.25;;;5.10;99.90;;;3.99;83.64;96015.06;5007234;28;20420;-74
2022/04/22 05:12:37;;;;;;;31.95;23.23;;;5.20;99.90;;;4.06;84.01;96007.84;5009030;28;20465;-74
2022/04/22 05:15:05;;;;;;;30.08;22.38;;;5.20;99.90;;;4.13;83.79;96005.81;4942666;28;20458;-74
2022/04/22 05:17:31;;;;;;;28.42;20.95;;;5.30;99.90;;;4.17;83.97;96005.09;4927385;28;20796;-74
2022/04/22 05:19:58;;;;;;;28.60;21.47;;;5.40;99.90;;;4.23;83.77;95998.88;4926306;28;20402;-73
2022/04/22 05:22:24;;;;;;;29.77;22.80;;;5.40;99.90;;;4.30;83.89;95996.06;4923421;29;20472;-73
2022/04/22 05:24:49;;;;;;;31.37;22.03;;;5.40;99.90;;;4.37;84.10;96001.09;4923757;29;20505;-72
2022/04/22 05:27:15;;;;;;;28.63;21.77;;;5.50;99.90;;;4.44;84.05;96004.31;4921007;28;20450;-71
2022/04/22 05:32:38;;;;;;;29.58;21.67;;;5.60;99.90;;;4.60;83.75;96003.44;4937400;28;20403;-71
2022/04/22 05:35:07;;;;;;;23.60;19.63;;;5.70;99.90;;;4.68;83.52;96003.00;4951465;28;20747;-73
2022/04/22 05:37:45;;;;;;;28.30;20.70;;;5.80;99.90;;;4.74;83.40;96002.00;4942183;28;20408;-73
2022/04/22 05:40:13;;;;;;;26.80;20.35;;;5.90;99.90;;;4.81;83.55;96002.59;4948521;28;20757;-73
2022/04/22 05:42:39;;;;;;;26.50;19.73;;;5.90;99.90;;;4.89;83.05;96009.22;4920085;28;20414;-73
2022/04/22 05:45:07;;;;;;;25.40;19.43;;;6.00;99.90;;;4.96;82.93;96001.97;4943523;28;20458;-74
2022/04/22 05:47:33;;;;;;;27.10;21.02;;;6.10;99.90;;;5.02;82.87;96006.22;4931589;28;20417;-75
2022/04/22 05:49:59;;;;;;;29.45;22.13;;;6.10;99.90;;;5.10;82.65;96000.53;4920626;28;20437;-74
2022/04/22 05:52:27;;;;;;;28.45;22.10;;;6.20;99.90;;;5.20;82.18;95999.78;4922356;28;20502;-74
2022/04/22 05:54:54;;;;;;;30.10;22.33;;;6.30;99.90;;;5.26;82.04;96001.44;4921955;28;20927;-74
2022/04/22 05:57:20;;;;;;;31.08;23.17;;;6.30;99.90;;;5.33;81.66;96002.81;4920809;28;20409;-74
2022/04/22 05:59:48;;;;;;;32.13;23.45;;;6.40;99.90;;;5.41;81.64;95999.69;4941937;28;20429;-74
2022/04/22 06:02:14;;;;;;;32.10;24.88;;;6.50;99.90;;;5.53;81.06;96002.16;4921805;28;20425;-74
2022/04/22 06:04:39;;;;;;;34.58;25.45;;;6.60;99.90;;;5.60;80.80;95997.47;4920580;28;20417;-74
2022/04/22 06:07:05;;;;;;;32.10;23.55;;;6.70;99.90;;;5.67;80.63;95999.88;4922996;28;20934;-75
2022/04/22 06:12:17;;;;;;;32.92;24.95;;;6.80;99.90;;;5.80;80.62;96000.19;4922127;28;20496;-77
2022/04/22 06:14:44;;;;;;;32.42;23.48;;;6.90;99.90;;;5.86;80.51;96001.03;4937692;28;20423;-76
2022/04/22 06:17:10;;;;;;;32.47;23.25;;;6.90;99.90;;;5.91;80.35;95993.22;4921598;28;20875;-74
2022/04/22 06:19:36;;;;;;;31.37;23.07;;;7.00;99.90;;;5.99;80.13;95986.69;4921926;28;20572;-74
2022/04/22 06:22:03;;;;;;;31.10;23.88;;;7.00;99.90;;;6.05;80.03;95983.81;4945309;28;20424;-75
2022/04/22 06:24:29;;;;;;;32.95;24.65;;;7.10;99.90;;;6.12;79.82;95988.84;4942694;28;20814;-73
2022/04/22 06:26:56;;;;;;;31.98;23.45;;;7.10;99.90;;;6.19;80.01;95994.63;4950163;28;20409;-73
2022/04/22 06:29:23;;;;;;;28.40;22.30;;;7.20;99.90;;;6.27;79.75;95995.97;4936220;28;20433;-74
2022/04/22 06:31:50;;;;;;;31.23;23.00;;;7.30;99.90;;;6.34;79.67;95997.31;4941149;28;20454;-73
2022/04/22 06:34:17;;;;;;;30.00;23.33;;;7.40;99.90;;;6.41;79.29;96000.50;4933963;28;20405;-73
2022/04/22 06:36:44;;;;;;;31.50;24.02;;;7.40;99.90;;;6.48;79.27;95997.63;4952340;28;20788;-74
2022/04/22 06:39:10;;;;;;;32.97;24.50;;;7.50;99.90;;;6.54;79.12;95992.13;4921474;28;20438;-75
2022/04/22 06:47:22;;;;;;;36.85;26.75;;;7.70;99.90;;;6.79;77.25;95978.25;4929333;29;20468;-74
2022/04/22 06:49:48;;;;;;;32.78;24.23;;;7.80;99.90;;;6.88;77.44;95978.53;4930555;29;20412;-75
2022/04/22 06:52:15;;;;;;;34.72;26.48;;;7.90;99.90;;;6.96;77.22;95983.25;4930380;29;20412;-75
2022/04/22 06:54:41;;;;;;;33.33;24.73;;;7.90;99.90;;;7.07;77.14;95984.84;4969392;28;20430;-74
2022/04/22 06:57:09;;;;;;;32.88;26.23;;;8.10;99.90;;;7.18;76.93;95975.91;4989253;28;20802;-75
2022/04/22 06:59:37;;;;;;;33.90;26.67;;;8.20;99.90;;;7.28;76.55;95973.28;5045595;28;20404;-74
2022/04/22 07:02:04;;;;;;;30.65;23.85;;;8.30;99.90;;;7.40;76.12;95983.50;5030159;28;20399;-73
2022/04/22 07:04:31;;;;;;;29.65;23.77;;;8.40;99.90;;;7.47;75.66;95972.72;4982077;28;20432;-72
2022/04/22 07:06:57;;;;;;;34.65;26.45;;;8.40;99.80;;;7.49;75.32;95974.03;4940839;28;20417;-75
2022/04/22 07:09:24;;;;;;;33.85;25.58;;;8.50;99.10;;;7.59;74.88;95967.97;4940704;28;20597;-76
2022/04/22 07:11:52;;;;;;;34.03;25.02;;;8.60;99.20;;;7.60;74.49;95975.59;4945870;28;20402;-74
2022/04/22 07:14:19;;;;;;;30.08;24.65;;;8.60;98.90;;;7.62;74.53;95975.31;4949343;28;20437;-75
2022/04/22 07:16:48;;;;;;;36.95;26.25;;;8.60;98.80;;;7.65;74.71;95980.06;4948072;29;20414;-72
2022/04/22 07:19:15;;;;;;;32.60;25.38;;;8.60;98.90;;;7.70;74.66;95972.94;4949013;29;20414;-74
2022/04/22 07:21:41;;;;;;;35.35;26.42;;;8.70;98.90;;;7.74;74.42;95973.97;4948871;29;20402;-74
2022/04/22 07:24:08;;;;;;;38.63;27.45;;;8.70;98.70;;;7.81;74.03;95967.66;4923171;28;20426;-74
2022/04/22 07:26:35;;;;;;;35.63;25.38;;;8.80;98.50;;;7.89;73.40;95967.13;4931578;28;20429;-75
2022/04/22 07:29:04;;;;;;;30.52;23.15;;;8.80;98.10;;;7.94;73.75;95965.25;4948031;28;20439;-75
2022/04/22 07:31:34;;;;;;;33.95;25.50;;;8.90;98.50;;;8.02;73.79;95961.25;4924121;28;20417;-75
2022/04/22 07:34:01;;;;;;;34.75;25.80;;;9.00;98.20;;;8.09;73.45;95965.19;4943440;28;20414;-76
2022/04/22 07:36:28;;;;;;;33.22;25.00;;;9.00;98.10;;;8.16;73.47;95965.69;4934632;28;20430;-76
2022/04/22 07:38:54;;;;;;;29.52;22.85;;;9.10;98.00;;;8.23;73.28;95968.03;4955973;28;20538;-77
2022/04/22 07:41:25;;;;;;;30.35;23.38;;;9.20;97.90;;;8.29;73.22;95972.22;4952135;28;20411;-77
2022/04/22 07:46:46;;;;;;;32.55;24.05;;;9.30;97.60;;;8.43;72.50;95967.16;4958563;28;20493;-77
2022/04/22 07:49:14;;;;;;;28.90;23.10;;;9.40;97.30;;;8.53;72.55;95961.84;4948727;28;20836;-76
2022/04/22 07:51:41;;;;;;;30.67;23.50;;;9.50;97.40;;;8.62;72.41;95968.13;4942290;28;20428;-77
2022/04/22 07:54:09;;;;;;;30.17;23.90;;;9.50;97.10;;;8.70;71.76;95954.38;4977913;28;21366;-77
2022/04/22 07:56:35;;;;;;;29.48;23.10;;;9.60;96.70;;;8.79;71.31;95963.28;4982747;28;20466;-76
2022/04/22 07:59:01;;;;;;;28.30;20.50;;;9.70;96.50;;;8.89;71.51;95959.75;4939766;28;20411;-80
2022/04/22 08:01:28;;;;;;;31.00;23.93;;;9.80;96.40;;;8.97;71.36;95958.38;4929028;28;20416;-77
2022/04/22 08:03:57;;;;;;;34.23;25.67;;;9.90;96.30;;;9.00;70.43;95960.50;4938495;29;20806;-77
2022/04/22 08:06:25;;;;;;;31.52;23.63;;;9.90;95.30;;;9.02;69.66;95951.22;4951881;28;20411;-76
2022/04/22 08:08:51;;;;;;;28.48;21.77;;;9.90;94.90;;;9.11;70.10;95951.41;4946811;28;20425;-73
2022/04/22 08:11:19;;;;;;;29.05;21.65;;;10.00;95.20;;;9.17;70.25;95948.44;4934045;28;20423;-76
2022/04/22 08:13:45;;;;;;;33.38;25.55;;;10.10;95.40;;;9.23;70.49;95952.66;4947926;28;20410;-77
2022/04/22 08:16:15;;;;;;;32.08;23.05;;;10.10;95.40;;;9.29;70.50;95946.25;4935407;28;20495;-78
2022/04/22 08:18:42;;;;;;;28.45;20.60;;;10.20;95.50;;;9.38;70.07;95948.31;4938617;28;20433;-78
2022/04/22 08:21:10;;;;;;;26.95;20.23;;;10.30;95.40;;;9.45;69.97;95949.56;4924770;28;20418;-76
2022/04/22 08:23:37;;;;;;;26.10;19.92;;;10.40;95.30;;;9.55;69.93;95951.28;4926520;28;20431;-75
2022/04/22 08:26:04;;;;;;;31.92;24.00;;;10.50;95.30;;;9.61;69.50;95947.56;4920282;29;20520;-78
2022/04/22 08:28:30;;;;;;;33.83;24.35;;;10.50;94.80;;;9.72;67.70;95946.38;4927685;29;20787;-77
2022/04/22 08:30:56;;;;;;;31.37;22.37;;;10.60;93.70;;;9.80;67.54;95945.75;4929323;29;20403;-77
2022/04/22 08:33:22;;;;;;;27.80;19.90;;;10.70;93.30;;;9.91;67.22;95939.31;4923247;29;20423;-76
2022/04/22 08:35:47;;;;;;;26.38;18.83;;;10.80;93.10;;;9.99;67.08;95941.31;4925965;29;20480;-76
2022/04/22 08:38:13;;;;;;;26.98;19.73;;;10.80;92.90;;;10.02;66.81;95938.09;4926543;29;20447;-75
2022/04/22 08:40:42;;;;;;;26.47;19.47;;;10.90;92.60;;;10.09;66.72;95935.09;4931015;28;21183;-75
2022/04/22 08:43:08;;;;;;;24.45;18.40;;;11.00;92.60;;;10.18;67.11;95932.66;4934781;28;20437;-76
2022/04/22 08:45:35;;;;;;;26.92;19.45;;;11.00;92.80;;;10.28;66.85;95927.25;4931210;28;20433;-79
2022/04/22 08:50:53;;;;;;;24.55;17.75;;;11.20;91.90;;;10.44;65.97;95918.84;4925408;28;20423;-75
2022/04/22 08:53:23;;;;;;;28.10;19.27;;;11.30;92.20;;;10.46;65.19;95921.19;4929424;28;20762;-73
2022/04/22 08:55:56;;;;;;;25.58;18.83;;;11.30;91.40;;;10.54;65.39;95917.09;4930202;29;20464;-76
2022/04/22 08:58:24;;;;;;;30.88;21.00;;;11.40;91.50;;;10.62;64.98;95921.75;4923835;29;20500;-73
2022/04/22 09:00:55;;;;;;;27.13;20.07;;;11.50;91.10;;;10.69;63.05;95919.53;4941485;28;20400;-74
2022/04/22 09:03:21;;;;;;;26.83;19.77;;;11.60;88.90;;;10.82;63.57;95918.81;4932808;28;20443;-75
2022/04/22 09:05:47;;;;;;;28.13;17.67;;;11.60;90.00;;;10.92;64.03;95928.44;4922842;29;21025;-74
2022/04/22 09:08:13;;;;;;;22.58;16.05;;;11.80;90.40;;;11.04;63.97;95913.72;4921724;29;20419;-75
2022/04/22 09:10:40;;;;;;;27.33;17.33;;;11.80;90.40;;;11.11;63.18;95918.63;4921711;29;20501;-77
2022/04/22 09:13:10;;;;;;;21.57;15.03;;;12.00;89.40;;;11.21;63.38;95913.16;4922327;28;20868;-75
2022/04/22 09:15:38;;;;;;;28.53;19.17;;;12.10;89.60;;;11.25;62.12;95916.81;4926335;28;20506;-75
2022/04/22 09:18:09;;;;;;;22.00;15.93;;;12.10;88.00;;;11.42;62.48;95913.63;4932534;28;20403;-76
2022/04/22 09:20:35;;;;;;;20.35;14.85;;;12.20;88.30;;;11.59;62.83;95919.09;4928756;28;20411;-76
2022/04/22 09:23:19;;;;;;;23.52;16.45;;;12.40;88.80;;;11.68;61.72;95904.09;4927689;29;20766;-76
2022/04/22 09:25:45;;;;;;;19.60;14.90;;;12.50;86.90;;;11.83;61.29;95911.81;4930396;29;20470;-75
2022/04/22 09:28:13;;;;;;;19.88;14.98;;;12.60;86.70;;;11.86;60.77;95900.63;4928853;29;20434;-76
2022/04/22 09:30:41;;;;;;;24.97;17.27;;;12.70;85.40;;;11.94;60.62;95899.16;4917304;29;20483;-75
2022/04/22 09:33:09;;;;;;;19.73;15.25;;;12.70;84.40;;;12.13;61.04;95901.66;4925583;29;20434;-76
2022/04/22 09:42:38;;;;;;;21.52;14.15;;;12.90;85.50;;;12.20;61.01;95886.91;4929627;29;20412;-76
2022/04/22 09:43:52;;;;;;;23.45;16.85;;;13.20;83.20;;;12.55;58.76;95880.06;4921836;29;20429;-75
2022/04/22 09:46:24;;;;;;;21.33;15.18;;;13.40;81.40;;;12.68;58.33;95894.38;4920738;29;20406;-75
2022/04/22 09:48:52;;;;;;;22.50;17.08;;;13.50;81.30;;;12.78;58.32;95892.25;4921759;29;20424;-75
2022/04/22 09:51:24;;;;;;;19.38;14.25;;;13.60;80.30;;;12.97;58.44;95891.31;4922385;29;20416;-75
2022/04/22 09:54:00;;;;;;;22.02;15.27;;;13.70;80.80;;;12.95;57.75;95886.28;4921677;29;20503;-73
2022/04/22 09:56:26;;;;;;;24.20;15.98;;;13.80;80.00;;;13.07;57.10;95886.56;4919613;29;20810;-74
2022/04/22 09:58:54;;;;;;;20.30;15.93;;;13.90;79.00;;;13.18;55.70;95887.09;4919856;29;20411;-73
2022/04/22 10:01:20;;;;;;;18.92;14.32;;;14.00;76.50;;;13.40;55.69;95886.28;4917211;29;20453;-74
2022/04/22 10:03:46;;;;;;;18.10;14.38;;;14.20;76.10;;;13.63;56.29;95881.69;4922218;29;20417;-73
2022/04/22 10:06:13;;;;;;;18.07;14.07;;;14.40;77.10;;;13.82;56.46;95884.91;4920947;29;20413;-73
2022/04/22 10:08:41;;;;;;;20.30;13.30;;;14.60;77.00;;;14.39;54.64;95888.34;4919256;29;20446;-73
2022/04/22 10:11:08;;;;;;;18.17;13.50;;;15.20;75.40;;;15.01;51.77;95883.50;4921651;29;20508;-75
2022/04/22 10:13:41;;;;;;;17.53;12.23;;;15.90;70.10;;;15.18;50.90;95884.59;4920498;28;20502;-74
2022/04/22 10:16:10;;;;;;;22.23;13.80;;;16.10;68.10;;;15.41;52.12;95881.38;4921809;29;20413;-74
2022/04/22 10:18:37;;;;;;;20.27;13.80;;;16.20;69.90;;;16.17;50.31;95880.59;4930662;28;20414;-73
2022/04/22 10:21:03;;;;;;;17.50;12.73;;;16.90;67.80;;;17.19;47.11;95878.28;4929539;28;20518;-72
2022/04/22 10:23:30;;;;;;;14.13;11.27;;;17.80;63.70;;;17.81;46.24;95873.88;4922884;28;20424;-73
2022/04/22 10:25:56;;;;;;;14.30;10.10;;;18.50;60.80;;;18.30;43.94;95883.44;4924682;28;20418;-74
2022/04/22 10:28:24;;;;;;;11.63;9.35;;;19.00;56.40;;;18.88;43.37;95871.38;4930877;28;20474;-72
2022/04/22 10:31:00;;;;;;;14.45;10.48;;;19.50;57.20;;;19.75;41.76;95869.84;4926320;28;20412;-76
2022/04/22 10:33:37;;;;;;;9.23;8.23;;;20.30;55.10;;;20.88;38.89;95879.72;4921827;28;20416;-75
2022/04/22 10:36:05;;;;;;;11.02;8.73;;;21.40;51.30;;;21.80;36.50;95868.75;4919730;29;20410;-75
2022/04/22 10:38:37;;;;;;;11.23;8.45;;;22.40;47.90;;;22.55;35.45;95865.31;4926094;29;20444;-78
2022/04/22 10:41:16;;;;;;;10.20;8.48;;;23.20;46.70;;;22.82;35.22;95857.19;4914462;29;20416;-76
2022/04/22 10:43:43;;;;;;;19.67;9.10;;;23.60;45.10;;;23.37;32.48;95867.09;4971608;23;20990;-74
2022/04/22 10:49:12;;;;;;;9.53;7.90;;;24.10;42.00;;;24.07;31.66;95849.19;5074443;28;20443;-72
2022/04/22 10:52:00;;;;;;;8.10;7.22;;;24.60;40.70;;;24.83;30.75;95847.34;5080672;28;20898;-73
2022/04/22 10:55:09;;;;;;;9.37;8.00;;;25.40;39.70;;;25.75;29.92;95853.06;5070584;28;20403;-73
2022/04/22 10:57:35;;;;;;;10.68;9.02;;;26.50;38.50;;;26.19;28.33;95851.88;5053220;28;20776;-74
2022/04/22 11:00:27;;;;;;;18.92;10.00;;;27.10;36.60;;;25.70;27.32;95855.38;5048056;28;20454;-70
2022/04/22 11:03:03;;;;;;;13.80;12.27;;;26.60;34.70;;;24.53;29.52;95847.59;5044462;28;20403;-71
2022/04/22 11:05:38;;;;;;;13.43;11.82;;;25.60;36.60;;;22.91;30.09;95836.88;5041750;28;20475;-72
2022/04/22 11:08:15;;;;;;;12.20;10.90;;;24.30;37.30;;;22.57;32.69;95840.66;5041527;28;20403;-72